createdAt,value
2022-12-31T00:02:38.529Z,100.00
2022-12-31T00:05:27.145Z,100.00
2022-12-31T00:08:15.626Z,100.00
2022-12-31T00:11:04.091Z,100.00
2022-12-31T00:13:53.228Z,100.00
2022-12-31T00:16:43.606Z,100.00
2022-12-31T00:19:32.095Z,100.00
2022-12-31T00:22:20.556Z,100.00
2022-12-31T00:25:10.025Z,100.00
2022-12-31T00:27:58.441Z,100.00
2022-12-31T00:30:47.024Z,100.00
2022-12-31T00:33:37.104Z,100.00
2022-12-31T00:36:29.123Z,100.00
2022-12-31T00:39:17.611Z,100.00
2022-12-31T00:42:06.188Z,100.00
2022-12-31T00:44:54.612Z,100.00
2022-12-31T00:47:43.140Z,100.00
2022-12-31T00:50:32.934Z,100.00
2022-12-31T00:53:21.527Z,100.00
2022-12-31T00:56:12.571Z,100.00
2022-12-31T00:59:01.320Z,100.00
2022-12-31T01:01:50.484Z,100.00
2022-12-31T01:04:39.008Z,100.00
2022-12-31T01:07:28.770Z,100.00
2022-12-31T01:10:37.278Z,100.00
2022-12-31T01:13:25.791Z,100.00
2022-12-31T01:16:15.224Z,100.00
2022-12-31T01:19:06.042Z,100.00
2022-12-31T01:21:55.177Z,100.00
2022-12-31T01:24:45.008Z,100.00
2022-12-31T01:27:33.429Z,100.00
2022-12-31T01:30:21.873Z,100.00
2022-12-31T01:33:10.252Z,100.00
2022-12-31T01:36:02.821Z,100.00
2022-12-31T01:38:51.625Z,99.15
2022-12-31T01:41:44.158Z,97.49
2022-12-31T01:44:59.984Z,95.80
2022-12-31T01:47:50.922Z,94.64
2022-12-31T01:50:41.083Z,93.15
2022-12-31T01:53:29.728Z,91.44
2022-12-31T01:56:19.449Z,91.87
2022-12-31T01:59:10.825Z,90.79
2022-12-31T02:02:00.506Z,89.92
2022-12-31T02:04:49.825Z,88.62
2022-12-31T02:07:38.324Z,88.47
2022-12-31T02:10:26.930Z,88.05
2022-12-31T02:13:16.092Z,87.80
2022-12-31T02:16:10.276Z,87.57
2022-12-31T02:19:03.297Z,88.12
2022-12-31T02:21:59.040Z,88.29
2022-12-31T02:25:16.644Z,86.92
2022-12-31T02:28:17.921Z,86.05
2022-12-31T02:31:10.423Z,86.73
2022-12-31T02:34:02.531Z,86.40
2022-12-31T02:36:51.756Z,85.64
2022-12-31T02:39:40.813Z,86.11
2022-12-31T02:42:29.380Z,85.67
2022-12-31T02:45:25.672Z,84.45
2022-12-31T02:48:32.956Z,84.03
2022-12-31T02:51:34.876Z,84.24
2022-12-31T02:54:29.970Z,84.15
2022-12-31T02:57:22.275Z,84.77
2022-12-31T03:00:35.947Z,84.43
2022-12-31T03:03:26.798Z,83.94
2022-12-31T03:06:15.394Z,84.02
2022-12-31T03:09:15.896Z,83.81
2022-12-31T03:12:23.417Z,83.68
2022-12-31T03:15:20.692Z,83.88
2022-12-31T03:18:10.589Z,83.49
2022-12-31T03:21:17.789Z,82.70
2022-12-31T03:24:24.515Z,82.98
2022-12-31T03:27:12.987Z,82.20
2022-12-31T03:30:01.445Z,82.64
2022-12-31T03:32:50.115Z,83.03
2022-12-31T03:35:39.891Z,83.05
2022-12-31T03:38:29.736Z,82.41
2022-12-31T03:41:18.281Z,81.62
2022-12-31T03:44:06.828Z,81.47
2022-12-31T03:46:55.294Z,81.79
2022-12-31T03:49:43.837Z,81.93
2022-12-31T03:52:32.295Z,82.06
2022-12-31T03:55:22.142Z,81.99
2022-12-31T03:58:10.565Z,81.86
2022-12-31T04:00:59.064Z,80.63
2022-12-31T04:03:47.608Z,81.30
2022-12-31T04:06:36.100Z,81.62
2022-12-31T04:09:24.582Z,81.40
2022-12-31T04:12:14.421Z,81.81
2022-12-31T04:15:02.980Z,81.34
2022-12-31T04:17:51.394Z,82.67
2022-12-31T04:20:39.869Z,82.81
2022-12-31T04:23:28.323Z,83.69
2022-12-31T04:26:16.823Z,83.99
2022-12-31T04:29:07.037Z,83.25
2022-12-31T04:31:55.528Z,82.62
2022-12-31T04:34:43.990Z,82.52
2022-12-31T04:37:32.465Z,82.60
2022-12-31T04:40:21.021Z,82.30
2022-12-31T04:43:09.525Z,81.98
2022-12-31T04:45:59.532Z,81.66
2022-12-31T04:48:48.007Z,81.75
2022-12-31T04:51:36.849Z,81.24
2022-12-31T04:54:25.418Z,80.36
2022-12-31T04:57:13.915Z,81.00
2022-12-31T05:00:02.396Z,80.78
2022-12-31T05:02:52.332Z,81.17
2022-12-31T05:05:42.738Z,81.01
2022-12-31T05:08:31.195Z,80.35
2022-12-31T05:11:19.674Z,81.86
2022-12-31T05:14:08.095Z,81.97
2022-12-31T05:16:58.208Z,82.15
2022-12-31T05:19:48.011Z,82.33
2022-12-31T05:22:36.455Z,81.83
2022-12-31T05:25:24.973Z,81.47
2022-12-31T05:28:13.824Z,81.61
2022-12-31T05:31:02.348Z,82.12
2022-12-31T05:33:50.797Z,81.90
2022-12-31T05:36:40.584Z,82.30
2022-12-31T05:39:29.043Z,81.36
2022-12-31T05:42:17.520Z,80.64
2022-12-31T05:45:07.086Z,80.39
2022-12-31T05:47:55.570Z,80.80
2022-12-31T05:50:44.019Z,81.14
2022-12-31T05:53:34.493Z,80.84
2022-12-31T05:56:22.965Z,81.32
2022-12-31T05:59:11.414Z,81.67
2022-12-31T06:01:59.870Z,80.43
2022-12-31T06:04:48.467Z,80.41
2022-12-31T06:07:36.936Z,80.69
2022-12-31T06:10:26.768Z,81.55
2022-12-31T06:13:15.244Z,81.05
2022-12-31T06:16:06.493Z,79.99
2022-12-31T06:18:55.078Z,79.89
2022-12-31T06:21:43.548Z,80.34
2022-12-31T06:24:32.001Z,79.86
2022-12-31T06:27:21.905Z,80.23
2022-12-31T06:30:12.039Z,80.23
2022-12-31T06:33:00.485Z,80.02
2022-12-31T06:35:48.922Z,79.40
2022-12-31T06:38:39.203Z,79.01
2022-12-31T06:41:27.681Z,78.73
2022-12-31T06:44:17.701Z,78.75
2022-12-31T06:47:08.917Z,78.83
2022-12-31T06:49:57.620Z,78.19
2022-12-31T06:52:46.174Z,77.91
2022-12-31T06:55:35.078Z,78.14
2022-12-31T06:58:24.256Z,78.03
2022-12-31T07:01:38.484Z,78.29
2022-12-31T07:04:49.917Z,78.03
2022-12-31T07:07:47.121Z,77.81
2022-12-31T07:10:43.955Z,77.79
2022-12-31T07:13:54.657Z,77.69
2022-12-31T07:16:52.421Z,78.42
2022-12-31T07:19:51.117Z,78.68
2022-12-31T07:22:44.574Z,78.50
2022-12-31T07:25:33.833Z,78.08
2022-12-31T07:28:33.554Z,78.03
2022-12-31T07:31:31.518Z,78.38
2022-12-31T07:34:26.264Z,77.95
2022-12-31T07:37:18.839Z,78.07
2022-12-31T07:40:16.203Z,77.32
2022-12-31T07:43:08.733Z,76.79
2022-12-31T07:46:07.884Z,76.09
2022-12-31T07:48:56.958Z,76.50
2022-12-31T07:51:47.303Z,76.70
2022-12-31T07:54:35.782Z,76.79
2022-12-31T07:57:28.012Z,76.96
2022-12-31T08:00:17.023Z,76.76
2022-12-31T08:03:13.409Z,76.11
2022-12-31T08:06:11.340Z,76.16
2022-12-31T08:09:05.184Z,75.59
2022-12-31T08:11:57.371Z,75.22
2022-12-31T08:14:47.329Z,75.56
2022-12-31T08:17:36.092Z,74.50
2022-12-31T08:20:24.626Z,74.38
2022-12-31T08:23:23.066Z,74.29
2022-12-31T08:26:26.915Z,73.64
2022-12-31T08:29:26.903Z,73.08
2022-12-31T08:32:20.019Z,72.62
2022-12-31T08:35:17.845Z,72.83
2022-12-31T08:38:24.402Z,72.21
2022-12-31T08:41:19.433Z,71.71
2022-12-31T08:44:14.295Z,72.49
2022-12-31T08:47:10.392Z,71.64
2022-12-31T08:49:59.432Z,71.62
2022-12-31T08:52:49.297Z,71.54
2022-12-31T08:55:38.318Z,70.58
2022-12-31T08:58:35.558Z,70.31
2022-12-31T09:01:29.104Z,68.94
2022-12-31T09:04:21.929Z,68.64
2022-12-31T09:07:11.904Z,68.66
2022-12-31T09:10:05.710Z,68.09
2022-12-31T09:13:00.145Z,68.48
2022-12-31T09:15:54.619Z,68.16
2022-12-31T09:18:44.510Z,67.57
2022-12-31T09:21:33.498Z,68.03
2022-12-31T09:24:22.523Z,67.67
2022-12-31T09:27:18.279Z,67.52
2022-12-31T09:30:10.390Z,68.27
2022-12-31T09:33:03.740Z,67.04
2022-12-31T09:35:56.273Z,66.59
2022-12-31T09:38:52.362Z,65.33
2022-12-31T09:42:14.915Z,64.69
2022-12-31T09:45:27.307Z,64.73
2022-12-31T09:48:50.160Z,64.42
2022-12-31T09:51:46.114Z,64.16
2022-12-31T09:54:44.810Z,64.04
2022-12-31T09:57:40.392Z,63.28
2022-12-31T10:00:34.936Z,64.10
2022-12-31T10:03:58.121Z,62.73
2022-12-31T10:06:54.852Z,61.38
2022-12-31T10:09:54.565Z,60.09
2022-12-31T10:13:20.119Z,60.93
2022-12-31T10:16:20.638Z,60.09
2022-12-31T10:19:44.592Z,59.50
2022-12-31T10:22:47.123Z,58.87
2022-12-31T10:26:01.201Z,59.71
2022-12-31T10:28:55.889Z,59.65
2022-12-31T10:31:49.958Z,58.21
2022-12-31T10:34:53.581Z,58.48
2022-12-31T10:37:47.640Z,57.99
2022-12-31T10:40:51.314Z,58.37
2022-12-31T10:44:13.550Z,58.26
2022-12-31T10:47:29.121Z,58.13
2022-12-31T10:50:40.428Z,57.29
2022-12-31T10:53:53.972Z,57.14
2022-12-31T10:57:20.417Z,57.26
2022-12-31T11:00:20.017Z,57.04
2022-12-31T11:03:46.060Z,57.44
2022-12-31T11:06:54.723Z,57.92
2022-12-31T11:10:01.070Z,57.52
2022-12-31T11:13:16.178Z,57.66
2022-12-31T11:16:15.873Z,56.27
2022-12-31T11:19:11.064Z,56.04
2022-12-31T11:22:17.643Z,56.56
2022-12-31T11:25:24.133Z,56.42
2022-12-31T11:28:36.061Z,56.01
2022-12-31T11:31:34.031Z,55.78
2022-12-31T11:34:50.311Z,56.63
2022-12-31T11:37:45.896Z,56.66
2022-12-31T11:40:42.948Z,56.12
2022-12-31T11:43:38.796Z,55.76
2022-12-31T11:46:46.685Z,56.08
2022-12-31T11:49:55.747Z,55.86
2022-12-31T11:52:55.819Z,55.75
2022-12-31T11:55:53.770Z,55.00
2022-12-31T11:58:46.021Z,55.67
2022-12-31T12:01:40.392Z,54.52
2022-12-31T12:04:29.500Z,54.22
2022-12-31T12:07:20.271Z,54.98
2022-12-31T12:10:20.711Z,54.94
2022-12-31T12:13:21.698Z,53.87
2022-12-31T12:16:11.181Z,54.04
2022-12-31T12:19:05.232Z,55.08
2022-12-31T12:21:54.408Z,52.97
2022-12-31T12:24:53.632Z,53.55
2022-12-31T12:27:42.249Z,53.10
2022-12-31T12:30:41.223Z,53.28
2022-12-31T12:33:31.496Z,53.24
2022-12-31T12:36:21.513Z,53.23
2022-12-31T12:39:21.533Z,52.86
2022-12-31T12:42:14.083Z,54.36
2022-12-31T12:45:05.128Z,54.42
2022-12-31T12:47:57.718Z,53.87
2022-12-31T12:50:47.755Z,54.00
2022-12-31T12:53:46.095Z,54.03
2022-12-31T12:56:39.995Z,53.00
2022-12-31T12:59:48.654Z,54.33
2022-12-31T13:03:02.998Z,54.20
2022-12-31T13:06:00.460Z,54.41
2022-12-31T13:09:01.300Z,54.22
2022-12-31T13:12:07.162Z,53.21
2022-12-31T13:15:00.119Z,53.99
2022-12-31T13:18:01.640Z,54.16
2022-12-31T13:20:56.596Z,54.28
2022-12-31T13:23:49.843Z,53.46
2022-12-31T13:26:42.282Z,53.22
2022-12-31T13:29:32.424Z,53.78
2022-12-31T13:32:23.095Z,53.53
2022-12-31T13:35:23.331Z,54.46
2022-12-31T13:38:16.279Z,55.24
2022-12-31T13:41:08.959Z,55.39
2022-12-31T13:44:01.874Z,54.45
2022-12-31T13:46:53.463Z,53.47
2022-12-31T13:49:45.627Z,53.11
2022-12-31T13:52:38.562Z,53.81
2022-12-31T13:55:33.294Z,54.28
2022-12-31T13:58:32.533Z,53.73
2022-12-31T14:01:27.209Z,53.73
2022-12-31T14:04:22.255Z,53.93
2022-12-31T14:07:13.625Z,54.40
2022-12-31T14:10:02.207Z,53.97
2022-12-31T14:12:57.600Z,53.83
2022-12-31T14:15:49.447Z,53.63
2022-12-31T14:18:44.859Z,54.61
2022-12-31T14:21:39.885Z,54.98
2022-12-31T14:24:38.117Z,54.85
2022-12-31T14:27:30.217Z,54.40
2022-12-31T14:30:22.316Z,54.80
2022-12-31T14:33:28.951Z,54.22
2022-12-31T14:36:25.066Z,53.29
2022-12-31T14:39:30.263Z,53.72
2022-12-31T14:42:24.994Z,54.24
2022-12-31T14:45:31.815Z,54.26
2022-12-31T14:48:30.342Z,55.36
2022-12-31T14:51:18.849Z,54.14
2022-12-31T14:54:29.265Z,54.37
2022-12-31T14:57:24.756Z,54.85
2022-12-31T15:00:27.226Z,54.13
2022-12-31T15:03:25.562Z,53.98
2022-12-31T15:06:42.717Z,54.72
2022-12-31T15:09:49.662Z,54.77
2022-12-31T15:12:49.727Z,54.35
2022-12-31T15:15:53.099Z,54.71
2022-12-31T15:18:58.863Z,54.77
2022-12-31T15:21:56.161Z,54.30
2022-12-31T15:24:45.663Z,54.70
2022-12-31T15:27:37.022Z,54.91
2022-12-31T15:30:35.949Z,55.00
2022-12-31T15:33:31.070Z,54.34
2022-12-31T15:36:22.036Z,54.60
2022-12-31T15:39:29.138Z,55.36
2022-12-31T15:42:39.856Z,54.69
2022-12-31T15:45:34.242Z,54.90
2022-12-31T15:48:28.212Z,54.80
2022-12-31T15:51:19.114Z,54.59
2022-12-31T15:54:09.165Z,54.76
2022-12-31T15:56:58.053Z,54.31
2022-12-31T15:59:47.392Z,55.26
2022-12-31T16:02:39.104Z,54.67
2022-12-31T16:05:29.223Z,54.75
2022-12-31T16:08:21.372Z,55.07
2022-12-31T16:11:10.499Z,55.14
2022-12-31T16:14:00.591Z,55.64
2022-12-31T16:16:57.194Z,56.03
2022-12-31T16:19:47.115Z,55.61
2022-12-31T16:22:40.005Z,55.71
2022-12-31T16:25:31.582Z,55.74
2022-12-31T16:28:29.732Z,56.38
2022-12-31T16:31:19.958Z,56.91
2022-12-31T16:34:13.545Z,57.75
2022-12-31T16:37:04.213Z,57.98
2022-12-31T16:40:19.863Z,58.61
2022-12-31T16:43:26.893Z,58.16
2022-12-31T16:46:20.471Z,58.96
2022-12-31T16:49:16.963Z,59.59
2022-12-31T16:52:07.828Z,59.77
2022-12-31T16:54:56.984Z,60.20
2022-12-31T16:57:48.767Z,60.34
2022-12-31T17:00:37.648Z,60.10
2022-12-31T17:03:28.703Z,59.76
2022-12-31T17:06:18.251Z,59.46
2022-12-31T17:09:13.933Z,59.47
2022-12-31T17:12:15.693Z,58.92
2022-12-31T17:15:07.760Z,58.75
2022-12-31T17:17:58.219Z,57.97
2022-12-31T17:20:47.267Z,58.31
2022-12-31T17:23:36.789Z,58.64
2022-12-31T17:26:27.942Z,58.80
2022-12-31T17:29:26.092Z,58.76
2022-12-31T17:32:30.818Z,58.39
2022-12-31T17:35:28.926Z,58.06
2022-12-31T17:38:31.752Z,58.70
2022-12-31T17:41:25.422Z,58.93
2022-12-31T17:44:18.831Z,58.93
2022-12-31T17:47:08.748Z,58.72
2022-12-31T17:49:58.584Z,58.67
2022-12-31T17:52:47.306Z,58.84
2022-12-31T17:55:35.909Z,59.27
2022-12-31T17:58:29.607Z,59.62
2022-12-31T18:01:20.881Z,60.20
2022-12-31T18:04:12.430Z,60.66
2022-12-31T18:07:02.291Z,61.47
2022-12-31T18:09:50.835Z,61.56
2022-12-31T18:12:39.966Z,62.45
2022-12-31T18:15:28.540Z,62.81
2022-12-31T18:18:25.307Z,63.25
2022-12-31T18:21:17.841Z,63.71
2022-12-31T18:24:10.313Z,64.50
2022-12-31T18:26:58.810Z,65.01
2022-12-31T18:29:48.615Z,65.98
2022-12-31T18:32:37.949Z,66.85
2022-12-31T18:35:58.140Z,67.63
2022-12-31T18:38:34.769Z,68.69
2022-12-31T18:41:27.635Z,70.20
2022-12-31T18:44:16.672Z,71.34
2022-12-31T18:47:07.010Z,73.04
2022-12-31T18:49:55.573Z,74.08
2022-12-31T18:52:44.666Z,75.85
2022-12-31T18:55:36.987Z,77.13
2022-12-31T18:58:26.869Z,78.19
2022-12-31T19:01:27.133Z,79.29
2022-12-31T19:04:22.886Z,80.98
2022-12-31T19:07:15.387Z,81.05
2022-12-31T19:10:03.943Z,81.31
2022-12-31T19:12:52.568Z,81.70
2022-12-31T19:15:44.652Z,81.55
2022-12-31T19:18:33.060Z,81.91
2022-12-31T19:21:23.751Z,82.07
2022-12-31T19:24:13.850Z,82.79
2022-12-31T19:27:02.957Z,83.91
2022-12-31T19:29:51.908Z,83.86
2022-12-31T19:32:41.814Z,84.41
2022-12-31T19:35:30.284Z,85.10
2022-12-31T19:38:21.543Z,84.85
2022-12-31T19:41:15.295Z,83.80
2022-12-31T19:44:03.748Z,83.56
2022-12-31T19:46:52.199Z,84.91
2022-12-31T19:49:42.063Z,85.15
2022-12-31T19:52:30.606Z,86.30
2022-12-31T19:55:21.052Z,86.70
2022-12-31T19:58:11.379Z,87.24
2022-12-31T20:01:03.105Z,87.74
2022-12-31T20:03:52.327Z,88.20
2022-12-31T20:06:42.100Z,88.53
2022-12-31T20:09:30.625Z,88.74
2022-12-31T20:12:19.073Z,89.27
2022-12-31T20:15:08.947Z,89.38
2022-12-31T20:17:58.440Z,90.18
2022-12-31T20:20:53.428Z,90.27
2022-12-31T20:23:45.734Z,90.90
2022-12-31T20:26:34.199Z,90.66
2022-12-31T20:29:22.670Z,90.73
2022-12-31T20:32:11.260Z,91.20
2022-12-31T20:34:59.821Z,91.34
2022-12-31T20:37:51.010Z,91.78
2022-12-31T20:40:46.459Z,91.68
2022-12-31T20:43:35.912Z,91.82
2022-12-31T20:46:25.638Z,92.25
2022-12-31T20:49:14.143Z,92.27
2022-12-31T20:52:04.306Z,92.29
2022-12-31T20:54:52.726Z,92.74
2022-12-31T20:57:42.603Z,93.13
2022-12-31T21:00:31.086Z,94.05
2022-12-31T21:04:02.314Z,94.72
2022-12-31T21:06:28.627Z,94.84
2022-12-31T21:09:17.134Z,95.54
2022-12-31T21:12:27.101Z,95.21
2022-12-31T21:15:17.063Z,95.06
2022-12-31T21:18:05.622Z,95.83
2022-12-31T21:20:54.123Z,95.62
2022-12-31T21:23:42.636Z,95.91
2022-12-31T21:26:31.626Z,95.88
2022-12-31T21:29:20.086Z,95.82
2022-12-31T21:32:10.003Z,96.19
2022-12-31T21:35:31.470Z,96.23
2022-12-31T21:38:08.497Z,96.06
2022-12-31T21:41:01.870Z,95.38
2022-12-31T21:43:50.401Z,94.78
2022-12-31T21:46:40.732Z,95.16
2022-12-31T21:49:39.376Z,95.06
2022-12-31T21:52:28.362Z,94.71
2022-12-31T21:55:34.383Z,93.56
2022-12-31T21:58:27.776Z,92.59
2022-12-31T22:01:36.026Z,92.55
2022-12-31T22:05:00.418Z,89.82
2022-12-31T22:07:35.076Z,86.18
2022-12-31T22:10:23.573Z,83.30
2022-12-31T22:13:12.249Z,81.46
2022-12-31T22:16:05.421Z,80.37
2022-12-31T22:18:56.069Z,78.81
2022-12-31T22:21:44.564Z,78.34
2022-12-31T22:24:34.410Z,76.33
2022-12-31T22:27:28.797Z,77.08
2022-12-31T22:30:18.640Z,77.07
2022-12-31T22:33:07.150Z,76.13
2022-12-31T22:36:00.355Z,75.53
2022-12-31T22:38:49.400Z,75.51
2022-12-31T22:41:41.487Z,75.84
2022-12-31T22:44:29.997Z,74.62
2022-12-31T22:47:18.522Z,74.79
2022-12-31T22:50:08.181Z,74.64
2022-12-31T22:52:56.693Z,74.46
2022-12-31T22:55:45.186Z,74.74
2022-12-31T22:58:35.181Z,73.09
2022-12-31T23:01:25.010Z,73.29
2022-12-31T23:04:13.765Z,73.41
2022-12-31T23:07:02.301Z,74.23
2022-12-31T23:10:08.400Z,73.69
2022-12-31T23:12:56.829Z,73.44
2022-12-31T23:16:04.765Z,72.77
2022-12-31T23:19:11.075Z,70.92
2022-12-31T23:22:17.521Z,70.44
2022-12-31T23:25:06.793Z,70.00
2022-12-31T23:27:55.337Z,69.05
2022-12-31T23:30:44.653Z,69.45
2022-12-31T23:33:34.459Z,69.09
2022-12-31T23:36:23.079Z,68.69
2022-12-31T23:39:12.787Z,67.77
2022-12-31T23:42:01.564Z,67.14
2022-12-31T23:44:50.048Z,67.40
2022-12-31T23:47:39.142Z,67.35
2022-12-31T23:50:29.028Z,67.61
2022-12-31T23:53:17.492Z,67.55
2022-12-31T23:56:12.219Z,67.78
2022-12-31T23:59:03.478Z,68.17
